Ship Status Report: callsign ZLJ8786

sailwx.info

Track history (hours):
 
Tides and Currents Weather Stations Pressure Air Temp Water Temp Dewpoint Dewpoint Depression Visibility Wind Speed Wind Dir Waves Ship Positions

Callsign ZLJ8786 (name unknown)

Last reported at 2018-Apr-23 01:00 UTC. Time now 2018-Apr-24 23:06 UTC.
Position N 25°47' W 080°11'.

Date/timePositionNaut miles runAvg speedWind from/ knotsBaromVisibWave heightAir tempDewpointWater temp
2018-Apr-23 01:00N 25°47' W 080°11'0 0.0
2018-Apr-22 20:59N 25°47' W 080°11'1 2.3
2018-Apr-22 20:30N 25°46' W 080°10'1 1.8
2018-Apr-22 19:57N 25°47' W 080°09'0 0.0
2018-Apr-22 19:30N 25°47' W 080°09'0 0.0
2018-Apr-22 18:30N 25°47' W 080°09'1 1.4
2018-Apr-22 17:30N 25°47' W 080°11'6 0.3
2018-Apr-22 00:00N 25°42' W 080°11'0 0.3
2018-Apr-21 23:29N 25°42' W 080°11'0 0.0
2018-Apr-21 22:59N 25°42' W 080°11'0 0.0
2018-Apr-21 21:38N 25°42' W 080°11'0 0.0
2018-Apr-21 21:20N 25°42' W 080°11'6 1.4
2018-Apr-21 17:27N 25°47' W 080°11'0 0.0
2018-Apr-21 17:00N 25°47' W 080°11'0 0.0
2018-Apr-21 16:30N 25°47' W 080°11'0 0.0
2018-Apr-21 16:00N 25°47' W 080°11'0 0.0
2018-Apr-21 12:00N 25°47' W 080°11'0 0.0
2018-Apr-21 08:00N 25°47' W 080°11'0 0.0
2018-Apr-21 07:28N 25°47' W 080°11'0 0.0
2018-Apr-21 06:30N 25°47' W 080°11'0 0.0
2018-Apr-21 06:00N 25°47' W 080°11'0 0.0
2018-Apr-21 05:30N 25°47' W 080°11'0 0.0
2018-Apr-21 01:59N 25°47' W 080°11'0 0.0
2018-Apr-21 00:30N 25°47' W 080°11'0 0.0
2018-Apr-21 00:00N 25°47' W 080°11'0 0.0
2018-Apr-20 23:30N 25°47' W 080°11'0 0.0
2018-Apr-20 15:58N 25°47' W 080°11'0 0.0
2018-Apr-20 15:29N 25°47' W 080°11'0 0.0
2018-Apr-20 14:55N 25°47' W 080°11'0 0.0
2018-Apr-20 14:00N 25°47' W 080°11'0 0.0
2018-Apr-20 12:55N 25°47' W 080°11'3 0.1
2018-Apr-18 21:00N 25°45' W 080°09'2 0.8
2018-Apr-18 19:00N 25°46' W 080°07'2 1.5
2018-Apr-18 17:29N 25°48' W 080°07'1 0.7
2018-Apr-18 15:30N 25°47' W 080°06'510.2
2018-Apr-18 15:00N 25°42' W 080°07'3 2.3
2018-Apr-18 13:30N 25°42' W 080°11'0 0.0
2018-Apr-18 13:00N 25°42' W 080°11'0 0.0
2018-Apr-18 12:24N 25°42' W 080°11'0 0.0
2018-Apr-18 12:00N 25°42' W 080°11'0 0.0
2018-Apr-18 11:24N 25°42' W 080°11'0 0.0
2018-Apr-18 10:51N 25°42' W 080°11'0 0.0
2018-Apr-18 10:30N 25°42' W 080°11'0 0.0
2018-Apr-18 09:54N 25°42' W 080°11'0 0.0
2018-Apr-18 09:30N 25°42' W 080°11'0 0.0
2018-Apr-18 09:00N 25°42' W 080°11'0 0.0
2018-Apr-18 08:24N 25°42' W 080°11'0 0.0
2018-Apr-18 08:00N 25°42' W 080°11'0 0.0
2018-Apr-18 07:30N 25°42' W 080°11'0 0.0
2018-Apr-18 06:54N 25°42' W 080°11'0 0.0
2018-Apr-18 06:24N 25°42' W 080°11'0 0.0
2018-Apr-18 02:29N 25°42' W 080°11'0 0.0
2018-Apr-18 01:54N 25°42' W 080°11'0 0.0
2018-Apr-18 01:30N 25°42' W 080°11'0 0.0
2018-Apr-18 00:00N 25°42' W 080°11'0 0.0
2018-Apr-17 23:24N 25°42' W 080°11'0 0.0
2018-Apr-17 22:28N 25°42' W 080°11'0 0.0
2018-Apr-17 21:30N 25°42' W 080°11'0 0.1
2018-Apr-17 20:59N 25°42' W 080°11'3 6.7
2018-Apr-17 20:30N 25°39' W 080°12'4 8.0
2018-Apr-17 19:59N 25°34' W 080°13'3 0.6
2018-Apr-17 15:17N 25°32' W 080°14'2 7.1
2018-Apr-17 14:59N 25°34' W 080°14'4 7.2
2018-Apr-17 14:30N 25°37' W 080°13'3 7.1
2018-Apr-17 14:00N 25°40' W 080°12'4 7.1
2018-Apr-17 13:30N 25°44' W 080°11'1 0.7
2018-Apr-17 12:29N 25°44' W 080°11'0 0.0
2018-Apr-17 11:56N 25°44' W 080°11'0 0.0
2018-Apr-17 09:59N 25°44' W 080°11'0 0.0
2018-Apr-17 09:29N 25°44' W 080°11'0 0.0
2018-Apr-17 08:59N 25°44' W 080°11'0 0.0
2018-Apr-17 08:29N 25°44' W 080°11'0 0.0
2018-Apr-17 07:59N 25°44' W 080°11'0 0.0
2018-Apr-17 07:26N 25°44' W 080°11'0 0.0
2018-Apr-17 06:56N 25°44' W 080°11'0 0.0
2018-Apr-17 06:23N 25°44' W 080°11'0 0.0
2018-Apr-17 05:59N 25°44' W 080°11'0 0.0
2018-Apr-17 05:29N 25°44' W 080°11'0 0.0
2018-Apr-17 04:53N 25°44' W 080°11'0 0.0
2018-Apr-17 04:29N 25°44' W 080°11'0 0.0
2018-Apr-17 03:59N 25°44' W 080°11'0 0.0
2018-Apr-17 03:26N 25°44' W 080°11'0 0.0
2018-Apr-17 02:59N 25°44' W 080°11'0 0.0
2018-Apr-17 02:30N 25°44' W 080°11'3 0.3
2018-Apr-16 19:00N 25°47' W 080°09'0 0.0
2018-Apr-16 17:30N 25°47' W 080°09'1 0.3
2018-Apr-16 13:00N 25°47' W 080°11'0 0.0
2018-Apr-16 11:30N 25°47' W 080°11'0 0.0
2018-Apr-16 11:00N 25°47' W 080°11'0 0.0
2018-Apr-16 09:00N 25°47' W 080°11'0 0.0
2018-Apr-16 04:30N 25°47' W 080°11'0 0.0
2018-Apr-16 03:30N 25°47' W 080°11'0 0.0
2018-Apr-16 01:30N 25°47' W 080°11'0 0.0
2018-Apr-15 20:00N 25°47' W 080°11'0 0.0
2018-Apr-15 19:30N 25°47' W 080°11'0 0.0
2018-Apr-15 19:00N 25°47' W 080°11'0 0.0
2018-Apr-15 16:00N 25°47' W 080°11'0 0.0
2018-Apr-15 12:30N 25°47' W 080°11'0 0.0
2018-Apr-15 11:30N 25°47' W 080°11'0 0.0
2018-Apr-15 09:00N 25°47' W 080°11'0 0.0
2018-Apr-15 08:00N 25°47' W 080°11'0 0.0
2018-Apr-15 06:00N 25°47' W 080°11'0 0.0
2018-Apr-15 05:00N 25°47' W 080°11'0 0.0
2018-Apr-15 01:00N 25°47' W 080°11'0 0.0
2018-Apr-15 00:30N 25°47' W 080°11'0 0.0
2018-Apr-15 00:00N 25°47' W 080°11'0 0.0
2018-Apr-14 22:30N 25°47' W 080°11'0 0.0
2018-Apr-14 20:00N 25°47' W 080°11'0 0.0
2018-Apr-14 19:00N 25°47' W 080°11'0 0.0
2018-Apr-14 18:30N 25°47' W 080°11'0 0.0
2018-Apr-14 17:00N 25°47' W 080°11'0 0.0
2018-Apr-14 14:00N 25°47' W 080°11'0 0.0
2018-Apr-14 13:00N 25°47' W 080°11'0 0.0
2018-Apr-14 10:30N 25°47' W 080°11'0 0.0
2018-Apr-14 05:30N 25°47' W 080°11'0 0.0
2018-Apr-14 05:00N 25°47' W 080°11'0 0.0
2018-Apr-13 20:31N 25°47' W 080°11'0 0.0
2018-Apr-13 17:30N 25°47' W 080°11'0 0.0
2018-Apr-13 05:30N 25°47' W 080°11'0 0.0
2018-Apr-13 03:00N 25°47' W 080°11'0 0.0
2018-Apr-13 02:00N 25°47' W 080°11'0 0.0
2018-Apr-13 01:00N 25°47' W 080°11'  
Track history (hours):
 
Tides and Currents Weather Stations Pressure Air Temp Water Temp Dewpoint Dewpoint Depression Visibility Wind Speed Wind Dir Waves Ship Positions

Callsign ZLJ8786 (name unknown)

Last reported at 2018-Apr-23 01:00 UTC. Time now 2018-Apr-24 23:06 UTC.
Position N 25°47' W 080°11'.

Date/timePositionNaut miles runAvg speedWind from/ knotsBaromVisibWave heightAir tempDewpointWater temp
2018-Apr-23 01:00N 25°47' W 080°11'0 0.0
2018-Apr-22 20:59N 25°47' W 080°11'1 2.3
2018-Apr-22 20:30N 25°46' W 080°10'1 1.8
2018-Apr-22 19:57N 25°47' W 080°09'0 0.0
2018-Apr-22 19:30N 25°47' W 080°09'0 0.0
2018-Apr-22 18:30N 25°47' W 080°09'1 1.4
2018-Apr-22 17:30N 25°47' W 080°11'6 0.3
2018-Apr-22 00:00N 25°42' W 080°11'0 0.3
2018-Apr-21 23:29N 25°42' W 080°11'0 0.0
2018-Apr-21 22:59N 25°42' W 080°11'0 0.0
2018-Apr-21 21:38N 25°42' W 080°11'0 0.0
2018-Apr-21 21:20N 25°42' W 080°11'6 1.4
2018-Apr-21 17:27N 25°47' W 080°11'0 0.0
2018-Apr-21 17:00N 25°47' W 080°11'0 0.0
2018-Apr-21 16:30N 25°47' W 080°11'0 0.0
2018-Apr-21 16:00N 25°47' W 080°11'0 0.0
2018-Apr-21 12:00N 25°47' W 080°11'0 0.0
2018-Apr-21 08:00N 25°47' W 080°11'0 0.0
2018-Apr-21 07:28N 25°47' W 080°11'0 0.0
2018-Apr-21 06:30N 25°47' W 080°11'0 0.0
2018-Apr-21 06:00N 25°47' W 080°11'0 0.0
2018-Apr-21 05:30N 25°47' W 080°11'0 0.0
2018-Apr-21 01:59N 25°47' W 080°11'0 0.0
2018-Apr-21 00:30N 25°47' W 080°11'0 0.0
2018-Apr-21 00:00N 25°47' W 080°11'0 0.0
2018-Apr-20 23:30N 25°47' W 080°11'0 0.0
2018-Apr-20 15:58N 25°47' W 080°11'0 0.0
2018-Apr-20 15:29N 25°47' W 080°11'0 0.0
2018-Apr-20 14:55N 25°47' W 080°11'0 0.0
2018-Apr-20 14:00N 25°47' W 080°11'0 0.0
2018-Apr-20 12:55N 25°47' W 080°11'3 0.1
2018-Apr-18 21:00N 25°45' W 080°09'2 0.8
2018-Apr-18 19:00N 25°46' W 080°07'2 1.5
2018-Apr-18 17:29N 25°48' W 080°07'1 0.7
2018-Apr-18 15:30N 25°47' W 080°06'510.2
2018-Apr-18 15:00N 25°42' W 080°07'3 2.3
2018-Apr-18 13:30N 25°42' W 080°11'0 0.0
2018-Apr-18 13:00N 25°42' W 080°11'0 0.0
2018-Apr-18 12:24N 25°42' W 080°11'0 0.0
2018-Apr-18 12:00N 25°42' W 080°11'0 0.0
2018-Apr-18 11:24N 25°42' W 080°11'0 0.0
2018-Apr-18 10:51N 25°42' W 080°11'0 0.0
2018-Apr-18 10:30N 25°42' W 080°11'0 0.0
2018-Apr-18 09:54N 25°42' W 080°11'0 0.0
2018-Apr-18 09:30N 25°42' W 080°11'0 0.0
2018-Apr-18 09:00N 25°42' W 080°11'0 0.0
2018-Apr-18 08:24N 25°42' W 080°11'0 0.0
2018-Apr-18 08:00N 25°42' W 080°11'0 0.0
2018-Apr-18 07:30N 25°42' W 080°11'0 0.0
2018-Apr-18 06:54N 25°42' W 080°11'0 0.0
2018-Apr-18 06:24N 25°42' W 080°11'0 0.0
2018-Apr-18 02:29N 25°42' W 080°11'0 0.0
2018-Apr-18 01:54N 25°42' W 080°11'0 0.0
2018-Apr-18 01:30N 25°42' W 080°11'0 0.0
2018-Apr-18 00:00N 25°42' W 080°11'0 0.0
2018-Apr-17 23:24N 25°42' W 080°11'0 0.0
2018-Apr-17 22:28N 25°42' W 080°11'0 0.0
2018-Apr-17 21:30N 25°42' W 080°11'0 0.1
2018-Apr-17 20:59N 25°42' W 080°11'3 6.7
2018-Apr-17 20:30N 25°39' W 080°12'4 8.0
2018-Apr-17 19:59N 25°34' W 080°13'3 0.6
2018-Apr-17 15:17N 25°32' W 080°14'2 7.1
2018-Apr-17 14:59N 25°34' W 080°14'4 7.2
2018-Apr-17 14:30N 25°37' W 080°13'3 7.1
2018-Apr-17 14:00N 25°40' W 080°12'4 7.1
2018-Apr-17 13:30N 25°44' W 080°11'1 0.7
2018-Apr-17 12:29N 25°44' W 080°11'0 0.0
2018-Apr-17 11:56N 25°44' W 080°11'0 0.0
2018-Apr-17 09:59N 25°44' W 080°11'0 0.0
2018-Apr-17 09:29N 25°44' W 080°11'0 0.0
2018-Apr-17 08:59N 25°44' W 080°11'0 0.0
2018-Apr-17 08:29N 25°44' W 080°11'0 0.0
2018-Apr-17 07:59N 25°44' W 080°11'0 0.0
2018-Apr-17 07:26N 25°44' W 080°11'0 0.0
2018-Apr-17 06:56N 25°44' W 080°11'0 0.0
2018-Apr-17 06:23N 25°44' W 080°11'0 0.0
2018-Apr-17 05:59N 25°44' W 080°11'0 0.0
2018-Apr-17 05:29N 25°44' W 080°11'0 0.0
2018-Apr-17 04:53N 25°44' W 080°11'0 0.0
2018-Apr-17 04:29N 25°44' W 080°11'0 0.0
2018-Apr-17 03:59N 25°44' W 080°11'0 0.0
2018-Apr-17 03:26N 25°44' W 080°11'0 0.0
2018-Apr-17 02:59N 25°44' W 080°11'0 0.0
2018-Apr-17 02:30N 25°44' W 080°11'3 0.3
2018-Apr-16 19:00N 25°47' W 080°09'0 0.0
2018-Apr-16 17:30N 25°47' W 080°09'1 0.3
2018-Apr-16 13:00N 25°47' W 080°11'0 0.0
2018-Apr-16 11:30N 25°47' W 080°11'0 0.0
2018-Apr-16 11:00N 25°47' W 080°11'0 0.0
2018-Apr-16 09:00N 25°47' W 080°11'0 0.0
2018-Apr-16 04:30N 25°47' W 080°11'0 0.0
2018-Apr-16 03:30N 25°47' W 080°11'0 0.0
2018-Apr-16 01:30N 25°47' W 080°11'0 0.0
2018-Apr-15 20:00N 25°47' W 080°11'0 0.0
2018-Apr-15 19:30N 25°47' W 080°11'0 0.0
2018-Apr-15 19:00N 25°47' W 080°11'0 0.0
2018-Apr-15 16:00N 25°47' W 080°11'0 0.0
2018-Apr-15 12:30N 25°47' W 080°11'0 0.0
2018-Apr-15 11:30N 25°47' W 080°11'0 0.0
2018-Apr-15 09:00N 25°47' W 080°11'0 0.0
2018-Apr-15 08:00N 25°47' W 080°11'0 0.0
2018-Apr-15 06:00N 25°47' W 080°11'0 0.0
2018-Apr-15 05:00N 25°47' W 080°11'0 0.0
2018-Apr-15 01:00N 25°47' W 080°11'0 0.0
2018-Apr-15 00:30N 25°47' W 080°11'0 0.0
2018-Apr-15 00:00N 25°47' W 080°11'0 0.0
2018-Apr-14 22:30N 25°47' W 080°11'0 0.0
2018-Apr-14 20:00N 25°47' W 080°11'0 0.0
2018-Apr-14 19:00N 25°47' W 080°11'0 0.0
2018-Apr-14 18:30N 25°47' W 080°11'0 0.0
2018-Apr-14 17:00N 25°47' W 080°11'0 0.0
2018-Apr-14 14:00N 25°47' W 080°11'0 0.0
2018-Apr-14 13:00N 25°47' W 080°11'0 0.0
2018-Apr-14 10:30N 25°47' W 080°11'0 0.0
2018-Apr-14 05:30N 25°47' W 080°11'0 0.0
2018-Apr-14 05:00N 25°47' W 080°11'0 0.0
2018-Apr-13 20:31N 25°47' W 080°11'0 0.0
2018-Apr-13 17:30N 25°47' W 080°11'0 0.0
2018-Apr-13 05:30N 25°47' W 080°11'0 0.0
2018-Apr-13 03:00N 25°47' W 080°11'0 0.0
2018-Apr-13 02:00N 25°47' W 080°11'0 0.0
2018-Apr-13 01:00N 25°47' W 080°11'  

Dump ship's entire track history